sensor_id;sensor_type;location;lat;lon;timestamp;P1;durP1;ratioP1;P2;durP2;ratioP2
1436;SDS011;712;51.026;13.792;2023-01-04T00:01:29;6.07;;;1.92;;
1436;SDS011;712;51.026;13.792;2023-01-04T00:03:54;4.90;;;2.00;;
1436;SDS011;712;51.026;13.792;2023-01-04T00:06:19;7.63;;;2.70;;
1436;SDS011;712;51.026;13.792;2023-01-04T00:08:44;6.97;;;2.23;;
1436;SDS011;712;51.026;13.792;2023-01-04T00:11:16;5.93;;;1.90;;
1436;SDS011;712;51.026;13.792;2023-01-04T00:13:42;6.80;;;1.92;;
1436;SDS011;712;51.026;13.792;2023-01-04T00:16:09;5.97;;;2.00;;
1436;SDS011;712;51.026;13.792;2023-01-04T00:18:35;5.57;;;2.20;;
1436;SDS011;712;51.026;13.792;2023-01-04T00:23:35;5.40;;;1.90;;
1436;SDS011;712;51.026;13.792;2023-01-04T00:26:00;6.18;;;2.10;;
1436;SDS011;712;51.026;13.792;2023-01-04T00:28:26;6.00;;;1.90;;
1436;SDS011;712;51.026;13.792;2023-01-04T00:30:51;4.45;;;1.80;;
1436;SDS011;712;51.026;13.792;2023-01-04T00:33:16;6.68;;;2.10;;
1436;SDS011;712;51.026;13.792;2023-01-04T00:35:41;5.18;;;2.00;;
1436;SDS011;712;51.026;13.792;2023-01-04T00:38:07;6.32;;;2.20;;
1436;SDS011;712;51.026;13.792;2023-01-04T00:40:33;6.50;;;2.20;;
1436;SDS011;712;51.026;13.792;2023-01-04T00:42:58;6.60;;;2.50;;
1436;SDS011;712;51.026;13.792;2023-01-04T00:45:23;6.87;;;2.10;;
1436;SDS011;712;51.026;13.792;2023-01-04T00:47:48;6.53;;;2.23;;
1436;SDS011;712;51.026;13.792;2023-01-04T00:50:13;7.85;;;2.35;;
1436;SDS011;712;51.026;13.792;2023-01-04T00:52:38;7.63;;;2.40;;
1436;SDS011;712;51.026;13.792;2023-01-04T00:55:04;6.25;;;2.33;;
1436;SDS011;712;51.026;13.792;2023-01-04T00:57:29;7.70;;;2.30;;
1436;SDS011;712;51.026;13.792;2023-01-04T00:59:54;7.45;;;2.28;;
1436;SDS011;712;51.026;13.792;2023-01-04T01:02:19;5.38;;;2.17;;
1436;SDS011;712;51.026;13.792;2023-01-04T01:04:44;7.47;;;2.33;;
1436;SDS011;712;51.026;13.792;2023-01-04T01:07:09;5.47;;;2.25;;
1436;SDS011;712;51.026;13.792;2023-01-04T01:09:35;7.00;;;2.30;;
1436;SDS011;712;51.026;13.792;2023-01-04T01:12:00;6.50;;;2.50;;
1436;SDS011;712;51.026;13.792;2023-01-04T01:14:25;5.22;;;2.30;;
1436;SDS011;712;51.026;13.792;2023-01-04T01:16:50;5.83;;;2.40;;
1436;SDS011;712;51.026;13.792;2023-01-04T01:19:16;6.45;;;2.10;;
1436;SDS011;712;51.026;13.792;2023-01-04T01:21:41;5.93;;;2.10;;
1436;SDS011;712;51.026;13.792;2023-01-04T01:24:07;6.80;;;2.40;;
1436;SDS011;712;51.026;13.792;2023-01-04T01:26:33;5.60;;;1.98;;
1436;SDS011;712;51.026;13.792;2023-01-04T01:28:58;6.90;;;2.25;;
1436;SDS011;712;51.026;13.792;2023-01-04T01:31:24;6.83;;;2.17;;
1436;SDS011;712;51.026;13.792;2023-01-04T01:33:50;7.15;;;2.10;;
1436;SDS011;712;51.026;13.792;2023-01-04T01:36:16;6.68;;;2.50;;
1436;SDS011;712;51.026;13.792;2023-01-04T01:38:41;5.35;;;1.90;;
1436;SDS011;712;51.026;13.792;2023-01-04T01:41:07;5.30;;;2.17;;
1436;SDS011;712;51.026;13.792;2023-01-04T01:46:23;6.03;;;2.28;;
1436;SDS011;712;51.026;13.792;2023-01-04T01:48:51;5.60;;;2.17;;
1436;SDS011;712;51.026;13.792;2023-01-04T01:51:17;9.25;;;2.17;;
1436;SDS011;712;51.026;13.792;2023-01-04T01:53:43;5.93;;;2.25;;
1436;SDS011;712;51.026;13.792;2023-01-04T01:56:08;5.07;;;2.10;;
1436;SDS011;712;51.026;13.792;2023-01-04T01:58:34;7.40;;;2.15;;
1436;SDS011;712;51.026;13.792;2023-01-04T02:01:00;5.85;;;2.05;;
1436;SDS011;712;51.026;13.792;2023-01-04T02:03:29;6.80;;;2.08;;
1436;SDS011;712;51.026;13.792;2023-01-04T02:05:56;6.00;;;2.05;;
1436;SDS011;712;51.026;13.792;2023-01-04T02:08:22;6.28;;;1.88;;
1436;SDS011;712;51.026;13.792;2023-01-04T02:10:48;5.50;;;2.20;;
1436;SDS011;712;51.026;13.792;2023-01-04T02:13:14;5.93;;;2.10;;
1436;SDS011;712;51.026;13.792;2023-01-04T02:15:49;5.75;;;2.25;;
1436;SDS011;712;51.026;13.792;2023-01-04T02:18:31;6.20;;;2.30;;
1436;SDS011;712;51.026;13.792;2023-01-04T02:28:54;5.43;;;2.10;;
1436;SDS011;712;51.026;13.792;2023-01-04T02:31:35;5.20;;;2.22;;
1436;SDS011;712;51.026;13.792;2023-01-04T02:34:14;7.35;;;2.92;;
1436;SDS011;712;51.026;13.792;2023-01-04T02:39:46;8.82;;;2.60;;
1436;SDS011;712;51.026;13.792;2023-01-04T02:42:16;5.90;;;2.30;;
1436;SDS011;712;51.026;13.792;2023-01-04T02:44:52;7.05;;;2.50;;
1436;SDS011;712;51.026;13.792;2023-01-04T02:47:24;5.72;;;2.28;;
1436;SDS011;712;51.026;13.792;2023-01-04T02:50:30;7.00;;;2.50;;
1436;SDS011;712;51.026;13.792;2023-01-04T02:53:00;6.35;;;2.35;;
1436;SDS011;712;51.026;13.792;2023-01-04T02:58:17;6.18;;;2.30;;
1436;SDS011;712;51.026;13.792;2023-01-04T03:00:51;6.53;;;2.28;;
1436;SDS011;712;51.026;13.792;2023-01-04T03:03:56;5.95;;;2.03;;
1436;SDS011;712;51.026;13.792;2023-01-04T03:06:55;8.05;;;2.45;;
1436;SDS011;712;51.026;13.792;2023-01-04T03:09:22;7.00;;;2.05;;
1436;SDS011;712;51.026;13.792;2023-01-04T03:11:52;6.47;;;2.05;;
1436;SDS011;712;51.026;13.792;2023-01-04T03:14:40;6.97;;;2.30;;
1436;SDS011;712;51.026;13.792;2023-01-04T03:17:08;5.22;;;2.10;;
1436;SDS011;712;51.026;13.792;2023-01-04T03:19:34;6.72;;;2.10;;
1436;SDS011;712;51.026;13.792;2023-01-04T03:22:17;6.63;;;2.17;;
1436;SDS011;712;51.026;13.792;2023-01-04T03:25:02;7.15;;;2.67;;
1436;SDS011;712;51.026;13.792;2023-01-04T03:27:47;6.68;;;2.38;;
1436;SDS011;712;51.026;13.792;2023-01-04T03:30:32;7.10;;;2.22;;
1436;SDS011;712;51.026;13.792;2023-01-04T03:33:17;5.90;;;2.53;;
1436;SDS011;712;51.026;13.792;2023-01-04T03:36:07;5.88;;;2.53;;
1436;SDS011;712;51.026;13.792;2023-01-04T03:38:41;7.13;;;3.00;;
1436;SDS011;712;51.026;13.792;2023-01-04T03:44:52;7.75;;;2.65;;
1436;SDS011;712;51.026;13.792;2023-01-04T03:47:39;7.63;;;3.03;;
1436;SDS011;712;51.026;13.792;2023-01-04T03:50:25;7.72;;;3.25;;
1436;SDS011;712;51.026;13.792;2023-01-04T03:52:51;6.72;;;3.30;;
1436;SDS011;712;51.026;13.792;2023-01-04T03:55:17;8.63;;;3.42;;
1436;SDS011;712;51.026;13.792;2023-01-04T03:57:43;8.73;;;3.97;;
1436;SDS011;712;51.026;13.792;2023-01-04T04:00:09;12.88;;;5.18;;
1436;SDS011;712;51.026;13.792;2023-01-04T04:02:38;9.80;;;4.35;;
1436;SDS011;712;51.026;13.792;2023-01-04T04:05:03;8.68;;;4.38;;
1436;SDS011;712;51.026;13.792;2023-01-04T04:07:47;11.68;;;4.35;;
1436;SDS011;712;51.026;13.792;2023-01-04T04:10:31;10.32;;;4.80;;
1436;SDS011;712;51.026;13.792;2023-01-04T04:12:56;10.17;;;4.63;;
1436;SDS011;712;51.026;13.792;2023-01-04T04:15:21;10.83;;;4.33;;
1436;SDS011;712;51.026;13.792;2023-01-04T04:17:46;11.15;;;4.78;;
1436;SDS011;712;51.026;13.792;2023-01-04T04:20:12;9.03;;;4.77;;
1436;SDS011;712;51.026;13.792;2023-01-04T04:22:37;10.67;;;4.90;;
1436;SDS011;712;51.026;13.792;2023-01-04T04:25:03;11.25;;;5.00;;
1436;SDS011;712;51.026;13.792;2023-01-04T04:27:28;10.13;;;4.70;;
1436;SDS011;712;51.026;13.792;2023-01-04T04:29:53;10.65;;;5.80;;
1436;SDS011;712;51.026;13.792;2023-01-04T04:32:18;13.37;;;5.93;;
1436;SDS011;712;51.026;13.792;2023-01-04T04:34:43;14.27;;;6.63;;
1436;SDS011;712;51.026;13.792;2023-01-04T04:37:08;14.48;;;6.00;;
1436;SDS011;712;51.026;13.792;2023-01-04T04:39:33;11.43;;;5.70;;
1436;SDS011;712;51.026;13.792;2023-01-04T04:41:59;12.27;;;5.37;;
1436;SDS011;712;51.026;13.792;2023-01-04T04:44:24;11.63;;;5.17;;
1436;SDS011;712;51.026;13.792;2023-01-04T04:46:49;11.20;;;5.37;;
1436;SDS011;712;51.026;13.792;2023-01-04T04:49:15;10.18;;;5.30;;
1436;SDS011;712;51.026;13.792;2023-01-04T04:51:41;11.10;;;5.43;;
1436;SDS011;712;51.026;13.792;2023-01-04T04:54:07;10.55;;;5.22;;
1436;SDS011;712;51.026;13.792;2023-01-04T04:56:32;11.45;;;5.13;;
1436;SDS011;712;51.026;13.792;2023-01-04T04:58:58;11.50;;;5.40;;
1436;SDS011;712;51.026;13.792;2023-01-04T05:01:23;12.53;;;5.43;;
1436;SDS011;712;51.026;13.792;2023-01-04T05:03:48;10.43;;;5.13;;
1436;SDS011;712;51.026;13.792;2023-01-04T05:06:14;12.23;;;5.43;;
1436;SDS011;712;51.026;13.792;2023-01-04T05:08:39;11.32;;;6.32;;
1436;SDS011;712;51.026;13.792;2023-01-04T05:11:05;12.73;;;5.60;;
1436;SDS011;712;51.026;13.792;2023-01-04T05:13:30;11.40;;;5.60;;
1436;SDS011;712;51.026;13.792;2023-01-04T05:15:55;11.00;;;5.20;;
1436;SDS011;712;51.026;13.792;2023-01-04T05:18:21;13.38;;;5.78;;
1436;SDS011;712;51.026;13.792;2023-01-04T05:20:46;12.10;;;5.53;;
1436;SDS011;712;51.026;13.792;2023-01-04T05:23:12;11.18;;;5.32;;
1436;SDS011;712;51.026;13.792;2023-01-04T05:25:38;8.90;;;4.65;;
1436;SDS011;712;51.026;13.792;2023-01-04T05:28:03;9.40;;;5.10;;
1436;SDS011;712;51.026;13.792;2023-01-04T05:30:29;10.75;;;5.57;;
1436;SDS011;712;51.026;13.792;2023-01-04T05:33:12;10.50;;;5.30;;
1436;SDS011;712;51.026;13.792;2023-01-04T05:35:38;11.27;;;5.50;;
1436;SDS011;712;51.026;13.792;2023-01-04T05:38:03;11.63;;;5.43;;
1436;SDS011;712;51.026;13.792;2023-01-04T05:40:28;11.90;;;5.63;;
1436;SDS011;712;51.026;13.792;2023-01-04T05:42:53;12.90;;;5.60;;
1436;SDS011;712;51.026;13.792;2023-01-04T05:45:19;12.40;;;5.90;;
1436;SDS011;712;51.026;13.792;2023-01-04T05:47:47;13.15;;;5.35;;
1436;SDS011;712;51.026;13.792;2023-01-04T05:50:12;11.45;;;5.53;;
1436;SDS011;712;51.026;13.792;2023-01-04T05:52:37;11.40;;;5.30;;
1436;SDS011;712;51.026;13.792;2023-01-04T05:55:02;11.35;;;5.70;;
1436;SDS011;712;51.026;13.792;2023-01-04T05:57:28;12.70;;;5.90;;
1436;SDS011;712;51.026;13.792;2023-01-04T05:59:53;12.07;;;5.63;;
1436;SDS011;712;51.026;13.792;2023-01-04T06:02:22;11.93;;;5.55;;
1436;SDS011;712;51.026;13.792;2023-01-04T06:04:48;11.43;;;5.32;;
1436;SDS011;712;51.026;13.792;2023-01-04T06:07:13;11.47;;;5.43;;
1436;SDS011;712;51.026;13.792;2023-01-04T06:09:39;13.43;;;5.78;;
1436;SDS011;712;51.026;13.792;2023-01-04T06:12:04;10.52;;;5.10;;
1436;SDS011;712;51.026;13.792;2023-01-04T06:55:32;12.05;;;5.65;;
1436;SDS011;712;51.026;13.792;2023-01-04T06:57:57;13.00;;;6.23;;
1436;SDS011;712;51.026;13.792;2023-01-04T07:00:23;13.90;;;6.37;;
1436;SDS011;712;51.026;13.792;2023-01-04T07:02:48;13.15;;;6.07;;
1436;SDS011;712;51.026;13.792;2023-01-04T07:05:13;12.02;;;5.72;;
1436;SDS011;712;51.026;13.792;2023-01-04T07:07:38;12.80;;;6.27;;
1436;SDS011;712;51.026;13.792;2023-01-04T07:10:04;12.65;;;5.72;;
1436;SDS011;712;51.026;13.792;2023-01-04T07:12:29;13.50;;;5.85;;
1436;SDS011;712;51.026;13.792;2023-01-04T07:14:54;16.40;;;6.67;;
1436;SDS011;712;51.026;13.792;2023-01-04T07:17:19;11.23;;;5.53;;
1436;SDS011;712;51.026;13.792;2023-01-04T07:19:44;12.10;;;5.73;;
1436;SDS011;712;51.026;13.792;2023-01-04T07:22:10;11.57;;;5.20;;
1436;SDS011;712;51.026;13.792;2023-01-04T07:24:35;9.80;;;5.20;;
1436;SDS011;712;51.026;13.792;2023-01-04T07:27:00;10.75;;;5.40;;
1436;SDS011;712;51.026;13.792;2023-01-04T07:29:25;10.95;;;5.05;;
1436;SDS011;712;51.026;13.792;2023-01-04T07:31:51;11.65;;;5.57;;
1436;SDS011;712;51.026;13.792;2023-01-04T07:34:17;8.68;;;4.93;;
1436;SDS011;712;51.026;13.792;2023-01-04T07:36:43;11.93;;;5.55;;
1436;SDS011;712;51.026;13.792;2023-01-04T07:39:08;10.27;;;4.45;;
1436;SDS011;712;51.026;13.792;2023-01-04T07:41:35;11.18;;;4.63;;
1436;SDS011;712;51.026;13.792;2023-01-04T07:44:00;9.25;;;4.45;;
1436;SDS011;712;51.026;13.792;2023-01-04T07:46:25;11.47;;;4.30;;
1436;SDS011;712;51.026;13.792;2023-01-04T07:48:51;8.50;;;4.38;;
1436;SDS011;712;51.026;13.792;2023-01-04T07:51:16;7.95;;;4.00;;
1436;SDS011;712;51.026;13.792;2023-01-04T07:53:42;7.23;;;3.80;;
1436;SDS011;712;51.026;13.792;2023-01-04T07:56:07;9.65;;;4.00;;
1436;SDS011;712;51.026;13.792;2023-01-04T07:58:32;10.00;;;4.07;;
1436;SDS011;712;51.026;13.792;2023-01-04T08:01:12;12.63;;;4.10;;
1436;SDS011;712;51.026;13.792;2023-01-04T08:03:37;11.35;;;4.38;;
1436;SDS011;712;51.026;13.792;2023-01-04T08:06:03;8.50;;;4.03;;
1436;SDS011;712;51.026;13.792;2023-01-04T08:08:28;8.98;;;3.78;;
1436;SDS011;712;51.026;13.792;2023-01-04T08:10:54;8.60;;;3.40;;
1436;SDS011;712;51.026;13.792;2023-01-04T08:13:19;9.38;;;4.30;;
1436;SDS011;712;51.026;13.792;2023-01-04T08:15:44;7.97;;;3.83;;
1436;SDS011;712;51.026;13.792;2023-01-04T08:18:15;9.13;;;4.00;;
1436;SDS011;712;51.026;13.792;2023-01-04T08:20:40;11.38;;;4.05;;
1436;SDS011;712;51.026;13.792;2023-01-04T08:23:06;9.57;;;3.85;;
1436;SDS011;712;51.026;13.792;2023-01-04T08:25:31;8.52;;;3.63;;
1436;SDS011;712;51.026;13.792;2023-01-04T08:27:56;8.50;;;3.80;;
1436;SDS011;712;51.026;13.792;2023-01-04T08:30:21;7.97;;;3.60;;
1436;SDS011;712;51.026;13.792;2023-01-04T08:32:46;8.50;;;4.00;;
1436;SDS011;712;51.026;13.792;2023-01-04T08:35:12;8.18;;;3.65;;
1436;SDS011;712;51.026;13.792;2023-01-04T08:37:37;9.50;;;3.85;;
1436;SDS011;712;51.026;13.792;2023-01-04T08:40:03;6.93;;;3.58;;
1436;SDS011;712;51.026;13.792;2023-01-04T08:42:28;6.82;;;3.35;;
1436;SDS011;712;51.026;13.792;2023-01-04T08:44:53;9.98;;;3.50;;
1436;SDS011;712;51.026;13.792;2023-01-04T08:47:18;7.38;;;3.50;;
1436;SDS011;712;51.026;13.792;2023-01-04T08:49:43;7.97;;;3.13;;
1436;SDS011;712;51.026;13.792;2023-01-04T08:52:09;7.45;;;3.38;;
1436;SDS011;712;51.026;13.792;2023-01-04T08:54:35;6.38;;;3.03;;
1436;SDS011;712;51.026;13.792;2023-01-04T08:57:00;8.25;;;3.33;;
1436;SDS011;712;51.026;13.792;2023-01-04T08:59:25;6.88;;;3.08;;
1436;SDS011;712;51.026;13.792;2023-01-04T09:01:51;8.07;;;3.50;;
1436;SDS011;712;51.026;13.792;2023-01-04T09:04:16;7.68;;;3.65;;
1436;SDS011;712;51.026;13.792;2023-01-04T09:06:41;7.90;;;3.70;;
1436;SDS011;712;51.026;13.792;2023-01-04T09:09:06;7.80;;;3.40;;
1436;SDS011;712;51.026;13.792;2023-01-04T09:11:31;5.70;;;2.78;;
1436;SDS011;712;51.026;13.792;2023-01-04T09:13:57;7.05;;;3.50;;
1436;SDS011;712;51.026;13.792;2023-01-04T09:16:23;7.15;;;3.45;;
1436;SDS011;712;51.026;13.792;2023-01-04T09:18:48;6.63;;;2.97;;
1436;SDS011;712;51.026;13.792;2023-01-04T09:21:14;5.72;;;2.72;;
1436;SDS011;712;51.026;13.792;2023-01-04T09:23:40;6.63;;;2.78;;
1436;SDS011;712;51.026;13.792;2023-01-04T09:26:06;5.80;;;2.50;;
1436;SDS011;712;51.026;13.792;2023-01-04T09:28:31;5.07;;;2.28;;
1436;SDS011;712;51.026;13.792;2023-01-04T09:30:57;6.00;;;2.00;;
1436;SDS011;712;51.026;13.792;2023-01-04T09:33:22;5.90;;;2.10;;
1436;SDS011;712;51.026;13.792;2023-01-04T09:35:47;5.72;;;2.00;;
1436;SDS011;712;51.026;13.792;2023-01-04T09:38:12;4.65;;;1.30;;
1436;SDS011;712;51.026;13.792;2023-01-04T09:40:48;4.90;;;1.40;;
1436;SDS011;712;51.026;13.792;2023-01-04T09:43:17;5.18;;;1.30;;
1436;SDS011;712;51.026;13.792;2023-01-04T09:45:42;5.88;;;1.40;;
1436;SDS011;712;51.026;13.792;2023-01-04T09:48:09;8.23;;;1.90;;
1436;SDS011;712;51.026;13.792;2023-01-04T09:50:41;4.32;;;1.65;;
1436;SDS011;712;51.026;13.792;2023-01-04T09:53:17;6.50;;;1.77;;
1436;SDS011;712;51.026;13.792;2023-01-04T09:55:47;3.70;;;0.80;;
1436;SDS011;712;51.026;13.792;2023-01-04T10:00:59;4.43;;;1.10;;
1436;SDS011;712;51.026;13.792;2023-01-04T10:03:32;3.95;;;0.90;;
1436;SDS011;712;51.026;13.792;2023-01-04T10:05:59;3.95;;;0.80;;
1436;SDS011;712;51.026;13.792;2023-01-04T10:08:24;3.13;;;0.90;;
1436;SDS011;712;51.026;13.792;2023-01-04T10:16:06;4.45;;;1.60;;
1436;SDS011;712;51.026;13.792;2023-01-04T10:18:43;4.63;;;1.50;;
1436;SDS011;712;51.026;13.792;2023-01-04T10:23:48;4.43;;;1.80;;
1436;SDS011;712;51.026;13.792;2023-01-04T10:26:16;5.95;;;1.90;;
1436;SDS011;712;51.026;13.792;2023-01-04T10:28:48;5.35;;;2.00;;
1436;SDS011;712;51.026;13.792;2023-01-04T10:33:45;4.80;;;1.80;;
1436;SDS011;712;51.026;13.792;2023-01-04T10:36:29;4.53;;;1.55;;
1436;SDS011;712;51.026;13.792;2023-01-04T10:38:59;4.53;;;1.55;;
1436;SDS011;712;51.026;13.792;2023-01-04T10:41:25;6.03;;;2.05;;
1436;SDS011;712;51.026;13.792;2023-01-04T10:43:58;5.78;;;1.73;;
1436;SDS011;712;51.026;13.792;2023-01-04T10:46:31;5.88;;;2.10;;
1436;SDS011;712;51.026;13.792;2023-01-04T10:49:42;6.32;;;2.20;;
1436;SDS011;712;51.026;13.792;2023-01-04T10:51:55;4.05;;;0.80;;
1436;SDS011;712;51.026;13.792;2023-01-04T10:54:26;3.30;;;0.80;;
1436;SDS011;712;51.026;13.792;2023-01-04T10:56:57;2.25;;;0.50;;
1436;SDS011;712;51.026;13.792;2023-01-04T10:59:28;2.33;;;0.40;;
1436;SDS011;712;51.026;13.792;2023-01-04T11:02:16;2.53;;;0.50;;
1436;SDS011;712;51.026;13.792;2023-01-04T11:04:44;2.35;;;0.40;;
1436;SDS011;712;51.026;13.792;2023-01-04T11:07:12;1.42;;;0.43;;
1436;SDS011;712;51.026;13.792;2023-01-04T11:09:45;2.10;;;0.60;;
1436;SDS011;712;51.026;13.792;2023-01-04T11:12:12;2.25;;;0.47;;
1436;SDS011;712;51.026;13.792;2023-01-04T11:14:39;1.92;;;0.50;;
1436;SDS011;712;51.026;13.792;2023-01-04T11:17:04;1.63;;;0.53;;
1436;SDS011;712;51.026;13.792;2023-01-04T11:19:31;1.50;;;0.50;;
1436;SDS011;712;51.026;13.792;2023-01-04T11:21:58;2.63;;;0.57;;
1436;SDS011;712;51.026;13.792;2023-01-04T11:24:25;3.58;;;0.60;;
1436;SDS011;712;51.026;13.792;2023-01-04T11:26:53;1.48;;;0.47;;
1436;SDS011;712;51.026;13.792;2023-01-04T11:32:08;1.80;;;0.60;;
1436;SDS011;712;51.026;13.792;2023-01-04T11:34:42;2.45;;;0.60;;
1436;SDS011;712;51.026;13.792;2023-01-04T11:37:21;2.80;;;0.80;;
1436;SDS011;712;51.026;13.792;2023-01-04T11:39:47;3.33;;;0.80;;
1436;SDS011;712;51.026;13.792;2023-01-04T11:42:16;2.17;;;0.60;;
1436;SDS011;712;51.026;13.792;2023-01-04T11:44:43;3.17;;;0.70;;
1436;SDS011;712;51.026;13.792;2023-01-04T11:47:21;3.47;;;0.80;;
1436;SDS011;712;51.026;13.792;2023-01-04T11:49:48;2.42;;;0.70;;
1436;SDS011;712;51.026;13.792;2023-01-04T11:54:51;3.42;;;0.70;;
1436;SDS011;712;51.026;13.792;2023-01-04T11:57:16;2.40;;;0.77;;
1436;SDS011;712;51.026;13.792;2023-01-04T11:59:42;2.10;;;0.80;;
1436;SDS011;712;51.026;13.792;2023-01-04T12:02:17;2.88;;;0.80;;
1436;SDS011;712;51.026;13.792;2023-01-04T12:04:42;2.03;;;0.70;;
1436;SDS011;712;51.026;13.792;2023-01-04T12:09:39;2.97;;;0.70;;
1436;SDS011;712;51.026;13.792;2023-01-04T12:12:04;2.45;;;0.70;;
1436;SDS011;712;51.026;13.792;2023-01-04T12:14:35;2.23;;;0.60;;
1436;SDS011;712;51.026;13.792;2023-01-04T12:17:03;3.83;;;0.80;;
1436;SDS011;712;51.026;13.792;2023-01-04T12:19:29;2.25;;;0.70;;
1436;SDS011;712;51.026;13.792;2023-01-04T12:21:56;3.00;;;0.77;;
1436;SDS011;712;51.026;13.792;2023-01-04T12:24:23;3.05;;;0.90;;
1436;SDS011;712;51.026;13.792;2023-01-04T12:26:49;3.13;;;0.88;;
1436;SDS011;712;51.026;13.792;2023-01-04T12:31:47;3.10;;;0.80;;
1436;SDS011;712;51.026;13.792;2023-01-04T12:39:03;2.95;;;0.60;;
1436;SDS011;712;51.026;13.792;2023-01-04T12:43:57;2.33;;;0.70;;
1436;SDS011;712;51.026;13.792;2023-01-04T12:52:33;3.60;;;0.60;;
1436;SDS011;712;51.026;13.792;2023-01-04T12:54:45;3.00;;;0.82;;
1436;SDS011;712;51.026;13.792;2023-01-04T12:57:20;2.95;;;0.90;;
1436;SDS011;712;51.026;13.792;2023-01-04T13:02:22;4.35;;;1.00;;
1436;SDS011;712;51.026;13.792;2023-01-04T13:04:48;3.95;;;1.10;;
1436;SDS011;712;51.026;13.792;2023-01-04T13:07:19;3.08;;;0.80;;
1436;SDS011;712;51.026;13.792;2023-01-04T13:09:48;2.22;;;0.60;;
1436;SDS011;712;51.026;13.792;2023-01-04T13:12:20;4.05;;;0.73;;
1436;SDS011;712;51.026;13.792;2023-01-04T13:14:50;2.75;;;0.80;;
1436;SDS011;712;51.026;13.792;2023-01-04T13:17:21;1.60;;;0.57;;
1436;SDS011;712;51.026;13.792;2023-01-04T13:19:48;2.08;;;0.73;;
1436;SDS011;712;51.026;13.792;2023-01-04T13:22:24;2.08;;;0.80;;
1436;SDS011;712;51.026;13.792;2023-01-04T13:24:50;2.47;;;0.82;;
1436;SDS011;712;51.026;13.792;2023-01-04T13:27:19;2.15;;;0.65;;
1436;SDS011;712;51.026;13.792;2023-01-04T13:29:45;1.95;;;0.70;;
1436;SDS011;712;51.026;13.792;2023-01-04T13:32:11;2.42;;;0.68;;
1436;SDS011;712;51.026;13.792;2023-01-04T13:34:40;4.05;;;0.73;;
1436;SDS011;712;51.026;13.792;2023-01-04T13:37:12;3.38;;;0.90;;
1436;SDS011;712;51.026;13.792;2023-01-04T13:42:10;1.73;;;0.47;;
1436;SDS011;712;51.026;13.792;2023-01-04T13:45:00;1.83;;;0.57;;
1436;SDS011;712;51.026;13.792;2023-01-04T13:47:28;2.55;;;0.60;;
1436;SDS011;712;51.026;13.792;2023-01-04T13:49:57;1.98;;;0.63;;
1436;SDS011;712;51.026;13.792;2023-01-04T13:52:23;1.85;;;0.60;;
1436;SDS011;712;51.026;13.792;2023-01-04T13:54:48;3.08;;;0.70;;
1436;SDS011;712;51.026;13.792;2023-01-04T13:57:14;1.48;;;0.52;;
1436;SDS011;712;51.026;13.792;2023-01-04T13:59:44;1.92;;;0.70;;
1436;SDS011;712;51.026;13.792;2023-01-04T14:02:14;4.37;;;0.70;;
1436;SDS011;712;51.026;13.792;2023-01-04T14:04:40;1.70;;;0.60;;
1436;SDS011;712;51.026;13.792;2023-01-04T14:07:06;2.88;;;0.50;;
1436;SDS011;712;51.026;13.792;2023-01-04T14:09:40;1.60;;;0.60;;
1436;SDS011;712;51.026;13.792;2023-01-04T14:12:07;2.08;;;0.60;;
1436;SDS011;712;51.026;13.792;2023-01-04T14:14:55;1.75;;;0.60;;
1436;SDS011;712;51.026;13.792;2023-01-04T14:17:29;1.48;;;0.57;;
1436;SDS011;712;51.026;13.792;2023-01-04T14:20:03;2.65;;;0.68;;
1436;SDS011;712;51.026;13.792;2023-01-04T14:24:55;2.23;;;0.50;;
1436;SDS011;712;51.026;13.792;2023-01-04T14:27:37;2.08;;;0.57;;
1436;SDS011;712;51.026;13.792;2023-01-04T14:32:58;1.40;;;0.43;;
1436;SDS011;712;51.026;13.792;2023-01-04T14:35:24;1.83;;;0.50;;
1436;SDS011;712;51.026;13.792;2023-01-04T14:37:50;3.20;;;0.65;;
1436;SDS011;712;51.026;13.792;2023-01-04T14:40:25;1.90;;;0.60;;
1436;SDS011;712;51.026;13.792;2023-01-04T14:42:51;2.88;;;0.60;;
1436;SDS011;712;51.026;13.792;2023-01-04T14:45:16;2.28;;;0.70;;
1436;SDS011;712;51.026;13.792;2023-01-04T14:47:41;1.40;;;0.40;;
1436;SDS011;712;51.026;13.792;2023-01-04T14:50:07;1.50;;;0.50;;
1436;SDS011;712;51.026;13.792;2023-01-04T14:52:32;2.42;;;0.60;;
1436;SDS011;712;51.026;13.792;2023-01-04T14:54:57;1.92;;;0.68;;
1436;SDS011;712;51.026;13.792;2023-01-04T14:57:23;2.95;;;0.50;;
1436;SDS011;712;51.026;13.792;2023-01-04T14:59:48;1.30;;;0.50;;
1436;SDS011;712;51.026;13.792;2023-01-04T15:02:13;2.00;;;0.70;;
1436;SDS011;712;51.026;13.792;2023-01-04T15:04:38;2.25;;;0.65;;
1436;SDS011;712;51.026;13.792;2023-01-04T15:07:03;1.65;;;0.70;;
1436;SDS011;712;51.026;13.792;2023-01-04T15:09:29;2.20;;;0.70;;
1436;SDS011;712;51.026;13.792;2023-01-04T15:11:54;1.83;;;0.53;;
1436;SDS011;712;51.026;13.792;2023-01-04T15:14:19;1.38;;;0.60;;
1436;SDS011;712;51.026;13.792;2023-01-04T15:16:45;2.80;;;0.60;;
1436;SDS011;712;51.026;13.792;2023-01-04T15:19:10;1.45;;;0.47;;
1436;SDS011;712;51.026;13.792;2023-01-04T15:21:35;1.90;;;0.60;;
1436;SDS011;712;51.026;13.792;2023-01-04T15:24:00;1.70;;;0.50;;
1436;SDS011;712;51.026;13.792;2023-01-04T15:26:25;2.50;;;0.70;;
1436;SDS011;712;51.026;13.792;2023-01-04T15:28:51;3.03;;;0.80;;
1436;SDS011;712;51.026;13.792;2023-01-04T15:31:16;1.83;;;0.55;;
1436;SDS011;712;51.026;13.792;2023-01-04T15:33:41;2.97;;;0.73;;
1436;SDS011;712;51.026;13.792;2023-01-04T15:36:11;2.20;;;0.77;;
1436;SDS011;712;51.026;13.792;2023-01-04T15:38:36;2.08;;;0.50;;
1436;SDS011;712;51.026;13.792;2023-01-04T15:41:09;2.70;;;0.60;;
1436;SDS011;712;51.026;13.792;2023-01-04T15:43:35;2.35;;;0.70;;
1436;SDS011;712;51.026;13.792;2023-01-04T15:46:01;2.78;;;0.68;;
1436;SDS011;712;51.026;13.792;2023-01-04T15:48:26;3.50;;;0.90;;
1436;SDS011;712;51.026;13.792;2023-01-04T15:50:51;2.70;;;0.60;;
1436;SDS011;712;51.026;13.792;2023-01-04T15:53:16;3.00;;;0.60;;
1436;SDS011;712;51.026;13.792;2023-01-04T15:55:41;2.77;;;0.60;;
1436;SDS011;712;51.026;13.792;2023-01-04T15:58:07;3.27;;;0.60;;
1436;SDS011;712;51.026;13.792;2023-01-04T16:00:32;2.40;;;0.73;;
1436;SDS011;712;51.026;13.792;2023-01-04T16:02:57;2.40;;;0.90;;
1436;SDS011;712;51.026;13.792;2023-01-04T16:05:22;2.43;;;0.60;;
1436;SDS011;712;51.026;13.792;2023-01-04T16:07:47;2.00;;;0.70;;
1436;SDS011;712;51.026;13.792;2023-01-04T16:10:13;2.17;;;0.80;;
1436;SDS011;712;51.026;13.792;2023-01-04T16:12:38;2.63;;;0.60;;
1436;SDS011;712;51.026;13.792;2023-01-04T16:15:07;2.03;;;0.70;;
1436;SDS011;712;51.026;13.792;2023-01-04T16:17:33;2.67;;;0.82;;
1436;SDS011;712;51.026;13.792;2023-01-04T16:19:58;3.03;;;0.73;;
1436;SDS011;712;51.026;13.792;2023-01-04T16:22:23;1.67;;;0.50;;
1436;SDS011;712;51.026;13.792;2023-01-04T16:24:48;2.70;;;0.77;;
1436;SDS011;712;51.026;13.792;2023-01-04T16:27:13;2.55;;;0.77;;
1436;SDS011;712;51.026;13.792;2023-01-04T16:29:38;2.10;;;0.60;;
1436;SDS011;712;51.026;13.792;2023-01-04T16:32:04;2.20;;;0.60;;
1436;SDS011;712;51.026;13.792;2023-01-04T16:34:29;1.58;;;0.50;;
1436;SDS011;712;51.026;13.792;2023-01-04T16:36:54;2.03;;;0.60;;
1436;SDS011;712;51.026;13.792;2023-01-04T16:39:19;1.45;;;0.60;;
1436;SDS011;712;51.026;13.792;2023-01-04T16:41:45;1.97;;;0.40;;
1436;SDS011;712;51.026;13.792;2023-01-04T16:44:10;2.50;;;0.60;;
1436;SDS011;712;51.026;13.792;2023-01-04T16:46:37;1.95;;;0.57;;
1436;SDS011;712;51.026;13.792;2023-01-04T16:49:08;2.50;;;0.68;;
1436;SDS011;712;51.026;13.792;2023-01-04T16:51:34;2.13;;;0.70;;
1436;SDS011;712;51.026;13.792;2023-01-04T16:54:03;3.22;;;0.70;;
1436;SDS011;712;51.026;13.792;2023-01-04T16:56:29;2.25;;;0.70;;
1436;SDS011;712;51.026;13.792;2023-01-04T16:58:55;1.27;;;0.50;;
1436;SDS011;712;51.026;13.792;2023-01-04T17:01:21;1.63;;;0.52;;
1436;SDS011;712;51.026;13.792;2023-01-04T17:03:47;1.52;;;0.40;;
1436;SDS011;712;51.026;13.792;2023-01-04T17:06:13;1.45;;;0.50;;
1436;SDS011;712;51.026;13.792;2023-01-04T17:08:38;1.17;;;0.40;;